createdAt,value
2022-11-07T00:00:28.179Z,500.63
2022-11-07T00:01:13.433Z,504.63
2022-11-07T00:01:57.943Z,450.67
2022-11-07T00:02:43.213Z,448.67
2022-11-07T00:03:27.883Z,433.68
2022-11-07T00:04:13.454Z,455.66
2022-11-07T00:04:58.200Z,454.66
2022-11-07T00:05:42.965Z,453.52
2022-11-07T00:06:28.214Z,451.67
2022-11-07T00:07:13.027Z,451.67
2022-11-07T00:07:58.654Z,433.68
2022-11-07T00:08:43.174Z,433.68
2022-11-07T00:09:28.333Z,423.69
2022-11-07T00:10:13.358Z,451.67
2022-11-07T00:10:58.449Z,433.68
2022-11-07T00:11:43.511Z,431.68
2022-11-07T00:12:28.664Z,434.68
2022-11-07T00:13:13.959Z,433.68
2022-11-07T00:13:58.570Z,418.69
2022-11-07T00:14:43.531Z,438.68
2022-11-07T00:15:28.948Z,430.68
2022-11-07T00:16:13.745Z,436.68
2022-11-07T00:16:58.780Z,410.70
2022-11-07T00:17:43.646Z,415.56
2022-11-07T00:18:28.808Z,394.71
2022-11-07T00:19:13.866Z,411.70
2022-11-07T00:19:58.818Z,422.69
2022-11-07T00:20:43.981Z,401.70
2022-11-07T00:21:29.755Z,406.70
2022-11-07T00:22:14.218Z,406.70
2022-11-07T00:22:59.148Z,404.70
2022-11-07T00:23:44.100Z,401.70
2022-11-07T00:24:29.159Z,392.71
2022-11-07T00:25:14.831Z,390.59
2022-11-07T00:25:59.473Z,396.71
2022-11-07T00:26:44.438Z,387.71
2022-11-07T00:27:29.574Z,357.62
2022-11-07T00:28:14.442Z,377.72
2022-11-07T00:28:59.813Z,384.72
2022-11-07T00:29:44.451Z,372.73
2022-11-07T00:30:29.716Z,362.73
2022-11-07T00:31:14.566Z,376.72
2022-11-07T00:31:59.725Z,387.76
2022-11-07T00:32:44.678Z,336.79
2022-11-07T00:33:29.792Z,285.82
2022-11-07T00:34:14.999Z,414.75
2022-11-07T00:34:59.902Z,429.74
2022-11-07T00:35:44.809Z,453.72
2022-11-07T00:36:29.773Z,492.70
2022-11-07T00:37:15.215Z,486.49
2022-11-07T00:38:00.279Z,478.71
2022-11-07T00:38:45.230Z,482.70
2022-11-07T00:39:30.391Z,431.74
2022-11-07T00:40:15.648Z,380.77
2022-11-07T00:41:00.603Z,425.74
2022-11-07T00:41:45.253Z,409.75
2022-11-07T00:42:30.736Z,397.76
2022-11-07T00:43:16.354Z,420.74
2022-11-07T00:44:00.931Z,426.74
2022-11-07T00:44:45.786Z,417.74
2022-11-07T00:45:30.636Z,411.75
2022-11-07T00:46:15.831Z,420.74
2022-11-07T00:47:00.849Z,417.74
2022-11-07T00:47:45.904Z,409.75
2022-11-07T00:48:31.483Z,373.77
2022-11-07T00:49:15.915Z,411.75
2022-11-07T00:50:01.022Z,408.75
2022-11-07T00:50:46.232Z,405.75
2022-11-07T00:51:31.219Z,406.64
2022-11-07T00:52:16.254Z,416.74
2022-11-07T00:53:01.549Z,436.73
2022-11-07T00:53:46.459Z,431.74
2022-11-07T00:54:31.310Z,435.61
2022-11-07T00:55:16.778Z,429.74
2022-11-07T00:56:01.730Z,429.74
2022-11-07T00:56:46.891Z,444.73
2022-11-07T00:57:31.641Z,460.59
2022-11-07T00:58:16.699Z,449.72
2022-11-07T00:59:02.305Z,442.61
2022-11-07T00:59:47.016Z,456.72
2022-11-07T01:00:31.967Z,438.73
2022-11-07T01:01:16.873Z,438.73
2022-11-07T01:02:02.539Z,421.63
2022-11-07T01:02:47.358Z,438.73
2022-11-07T01:03:32.095Z,434.73
2022-11-07T01:04:17.175Z,443.73
2022-11-07T01:05:02.307Z,415.75
2022-11-07T01:05:50.331Z,411.75
2022-11-07T01:06:32.419Z,427.74
2022-11-07T01:07:17.886Z,448.72
2022-11-07T01:08:02.565Z,435.61
2022-11-07T01:08:47.669Z,365.78
2022-11-07T01:09:32.647Z,299.82
2022-11-07T01:10:17.724Z,318.84
2022-11-07T01:11:02.661Z,318.84
2022-11-07T01:11:47.917Z,317.84
2022-11-07T01:12:32.677Z,317.84
2022-11-07T01:13:17.807Z,336.79
2022-11-07T01:14:02.687Z,285.75
2022-11-07T01:14:47.844Z,212.87
2022-11-07T01:15:32.788Z,258.84
2022-11-07T01:16:17.978Z,243.85
2022-11-07T01:17:03.004Z,250.85
2022-11-07T01:17:48.063Z,252.84
2022-11-07T01:18:33.012Z,254.84
2022-11-07T01:19:18.273Z,258.84
2022-11-07T01:20:03.389Z,241.85
2022-11-07T01:20:48.410Z,248.85
2022-11-07T01:21:33.474Z,248.85
2022-11-07T01:22:18.298Z,244.85
2022-11-07T01:23:03.563Z,248.78
2022-11-07T01:23:48.536Z,254.84
2022-11-07T01:24:33.670Z,245.78
2022-11-07T01:25:18.419Z,244.85
2022-11-07T01:26:03.784Z,250.78
2022-11-07T01:26:48.843Z,258.84
2022-11-07T01:27:33.693Z,275.83
2022-11-07T01:28:18.750Z,296.82
2022-11-07T01:29:03.906Z,281.83
2022-11-07T01:29:48.775Z,312.81
2022-11-07T01:30:33.576Z,304.81
2022-11-07T01:31:19.038Z,297.82
2022-11-07T01:32:03.724Z,297.82
2022-11-07T01:32:49.165Z,313.81
2022-11-07T01:33:33.970Z,313.81
2022-11-07T01:34:19.204Z,308.81
2022-11-07T01:35:04.053Z,312.72
2022-11-07T01:35:49.411Z,298.82
2022-11-07T01:36:34.372Z,298.82
2022-11-07T01:37:19.470Z,303.81
2022-11-07T01:38:04.238Z,282.83
2022-11-07T01:38:49.436Z,297.82
2022-11-07T01:39:34.287Z,297.82
2022-11-07T01:40:19.369Z,273.83
2022-11-07T01:41:04.610Z,268.76
2022-11-07T01:41:49.512Z,262.84
2022-11-07T01:42:34.974Z,262.84
2022-11-07T01:43:19.360Z,263.84
2022-11-07T01:44:04.726Z,384.76
2022-11-07T01:44:49.788Z,451.72
2022-11-07T01:45:34.793Z,469.71
2022-11-07T01:46:19.692Z,480.71
2022-11-07T01:47:04.649Z,448.72
2022-11-07T01:47:49.807Z,393.76
2022-11-07T01:48:34.969Z,393.76
2022-11-07T01:49:20.163Z,258.84
2022-11-07T01:50:05.797Z,246.78
2022-11-07T01:50:50.032Z,267.84
2022-11-07T01:51:35.095Z,400.75
2022-11-07T01:52:20.144Z,375.77
2022-11-07T01:53:05.406Z,310.81
2022-11-07T01:53:50.460Z,381.77
2022-11-07T01:54:35.258Z,393.76
2022-11-07T01:55:20.516Z,484.75
2022-11-07T01:56:05.535Z,512.69
2022-11-07T01:56:50.682Z,511.69
2022-11-07T01:57:35.441Z,516.68
2022-11-07T01:58:20.596Z,503.69
2022-11-07T01:59:05.976Z,503.69
2022-11-07T01:59:51.007Z,520.68
2022-11-07T02:00:36.244Z,508.69
2022-11-07T02:01:20.783Z,518.68
2022-11-07T02:02:05.979Z,395.76
2022-11-07T02:02:51.077Z,315.81
2022-11-07T02:03:36.163Z,277.83
2022-11-07T02:04:21.150Z,293.82
2022-11-07T02:05:06.409Z,282.86
2022-11-07T02:05:51.080Z,405.79
2022-11-07T02:06:36.489Z,445.77
2022-11-07T02:07:21.279Z,403.80
2022-11-07T02:08:06.534Z,313.84
2022-11-07T02:08:51.325Z,359.68
2022-11-07T02:09:36.729Z,256.84
2022-11-07T02:10:21.399Z,278.86
2022-11-07T02:11:06.457Z,260.87
2022-11-07T02:11:51.509Z,269.76
2022-11-07T02:12:36.775Z,257.84
2022-11-07T02:13:21.620Z,250.78
2022-11-07T02:14:06.878Z,258.87
2022-11-07T02:14:51.749Z,246.93
2022-11-07T02:15:37.002Z,242.96
2022-11-07T02:16:22.941Z,250.96
2022-11-07T02:17:06.501Z,342.95
2022-11-07T02:17:51.875Z,270.96
2022-11-07T02:18:37.123Z,237.96
2022-11-07T02:19:22.207Z,271.94
2022-11-07T02:20:06.831Z,263.93
2022-11-07T02:20:52.183Z,275.92
2022-11-07T02:21:37.140Z,273.91
2022-11-07T02:22:22.091Z,249.91
2022-11-07T02:23:07.076Z,234.92
2022-11-07T02:23:52.326Z,242.88
2022-11-07T02:24:37.577Z,244.88
2022-11-07T02:25:22.131Z,248.87
2022-11-07T02:26:07.066Z,242.88
2022-11-07T02:26:52.428Z,241.88
2022-11-07T02:27:37.438Z,298.85
2022-11-07T02:28:22.542Z,290.85
2022-11-07T02:29:07.502Z,307.84
2022-11-07T02:29:52.890Z,324.84
2022-11-07T02:30:37.649Z,299.85
2022-11-07T02:31:22.777Z,294.85
2022-11-07T02:32:07.827Z,292.78
2022-11-07T02:32:52.882Z,286.85
2022-11-07T02:33:38.145Z,316.77
2022-11-07T02:34:22.893Z,310.84
2022-11-07T02:35:08.487Z,305.84
2022-11-07T02:35:53.207Z,326.83
2022-11-07T02:36:38.262Z,310.84
2022-11-07T02:37:23.137Z,326.83
2022-11-07T02:38:08.278Z,312.77
2022-11-07T02:38:53.130Z,345.82
2022-11-07T02:39:38.593Z,301.85
2022-11-07T02:40:23.618Z,315.84
2022-11-07T02:41:08.826Z,315.84
2022-11-07T02:41:53.659Z,300.85
2022-11-07T02:42:38.929Z,284.86
2022-11-07T02:43:23.688Z,264.87
2022-11-07T02:44:08.730Z,282.86
2022-11-07T02:44:54.440Z,279.86
2022-11-07T02:45:39.161Z,296.85
2022-11-07T02:46:23.919Z,292.85
2022-11-07T02:47:08.746Z,308.84
2022-11-07T02:47:53.807Z,289.79
2022-11-07T02:48:38.859Z,289.85
2022-11-07T02:49:24.037Z,276.86
2022-11-07T02:50:09.073Z,278.86
2022-11-07T02:50:54.540Z,313.84
2022-11-07T02:51:39.293Z,301.85
2022-11-07T02:52:24.403Z,296.78
2022-11-07T02:53:09.203Z,339.83
2022-11-07T02:53:54.154Z,333.83
2022-11-07T02:54:39.322Z,334.83
2022-11-07T02:55:23.946Z,320.84
2022-11-07T02:56:09.654Z,290.85
2022-11-07T02:56:54.481Z,278.86
2022-11-07T02:57:39.898Z,289.85
2022-11-07T02:58:24.801Z,286.79
2022-11-07T02:59:09.568Z,292.85
2022-11-07T02:59:54.671Z,311.84
2022-11-07T03:00:39.873Z,304.85
2022-11-07T03:01:25.011Z,296.85
2022-11-07T03:02:09.993Z,290.85
2022-11-07T03:02:54.981Z,290.85
2022-11-07T03:03:40.299Z,314.84
2022-11-07T03:04:24.942Z,299.85
2022-11-07T03:05:10.102Z,294.85
2022-11-07T03:05:55.061Z,295.85
2022-11-07T03:06:40.730Z,295.85
2022-11-07T03:07:25.446Z,305.84
2022-11-07T03:08:10.177Z,293.85
2022-11-07T03:08:55.283Z,281.86
2022-11-07T03:09:40.852Z,311.84
2022-11-07T03:10:25.509Z,307.84
2022-11-07T03:11:10.454Z,284.86
2022-11-07T03:11:55.522Z,297.82
2022-11-07T03:12:40.874Z,328.80
2022-11-07T03:13:25.829Z,290.82
2022-11-07T03:14:10.717Z,290.82
2022-11-07T03:14:55.840Z,295.85
2022-11-07T03:15:40.697Z,295.85
2022-11-07T03:16:25.435Z,277.86
2022-11-07T03:17:10.898Z,276.86
2022-11-07T03:17:55.927Z,263.87
2022-11-07T03:18:40.908Z,280.79
2022-11-07T03:19:25.762Z,283.86
2022-11-07T03:20:10.822Z,252.78
2022-11-07T03:20:56.080Z,275.86
2022-11-07T03:21:41.347Z,259.87
2022-11-07T03:22:26.128Z,268.86
2022-11-07T03:23:11.375Z,263.87
2022-11-07T03:23:56.411Z,238.88
2022-11-07T03:24:42.123Z,268.86
2022-11-07T03:25:26.321Z,257.87
2022-11-07T03:26:11.624Z,294.74
2022-11-07T03:26:56.842Z,277.86
2022-11-07T03:27:42.001Z,276.86
2022-11-07T03:28:26.525Z,272.86
2022-11-07T03:29:11.861Z,272.86
2022-11-07T03:29:56.563Z,259.87
2022-11-07T03:30:42.027Z,259.87
2022-11-07T03:31:26.771Z,277.86
2022-11-07T03:32:11.844Z,277.86
2022-11-07T03:32:57.086Z,260.87
2022-11-07T03:33:42.044Z,263.81
2022-11-07T03:34:27.156Z,257.87
2022-11-07T03:35:12.254Z,257.87
2022-11-07T03:35:57.357Z,468.76
2022-11-07T03:36:42.475Z,466.76
2022-11-07T03:37:27.585Z,496.75
2022-11-07T03:38:12.407Z,517.62
2022-11-07T03:38:57.542Z,493.75
2022-11-07T03:39:42.599Z,486.75
2022-11-07T03:40:27.557Z,470.76
2022-11-07T03:41:12.501Z,479.76
2022-11-07T03:41:57.666Z,513.74
2022-11-07T03:42:42.700Z,471.65
2022-11-07T03:43:27.878Z,485.75
2022-11-07T03:44:13.635Z,508.74
2022-11-07T03:44:57.893Z,491.75
2022-11-07T03:45:43.466Z,503.74
2022-11-07T03:46:27.899Z,503.63
2022-11-07T03:47:13.167Z,513.74
2022-11-07T03:47:58.110Z,510.62
2022-11-07T03:48:43.891Z,521.74
2022-11-07T03:49:27.919Z,523.73
2022-11-07T03:50:13.492Z,515.74
2022-11-07T03:50:58.244Z,513.74
2022-11-07T03:51:43.201Z,521.74
2022-11-07T03:52:28.354Z,498.75
2022-11-07T03:53:14.010Z,514.74
2022-11-07T03:53:58.675Z,488.75
2022-11-07T03:54:43.624Z,496.75
2022-11-07T03:55:28.680Z,478.76
2022-11-07T03:56:13.738Z,510.74
2022-11-07T03:56:58.488Z,495.75
2022-11-07T03:57:44.057Z,498.75
2022-11-07T03:58:29.017Z,522.73
2022-11-07T03:59:13.858Z,507.63
2022-11-07T03:59:59.266Z,500.75
2022-11-07T04:00:44.280Z,493.64
2022-11-07T04:01:29.406Z,489.75
2022-11-07T04:02:14.219Z,489.75
2022-11-07T04:03:00.287Z,523.73
2022-11-07T04:03:44.199Z,520.74
2022-11-07T04:04:29.764Z,519.74
2022-11-07T04:05:14.619Z,530.73
2022-11-07T04:05:59.676Z,528.73
2022-11-07T04:06:44.504Z,516.74
2022-11-07T04:07:29.629Z,510.62
2022-11-07T04:08:14.541Z,513.74
2022-11-07T04:08:59.661Z,506.74
2022-11-07T04:09:44.457Z,521.74
2022-11-07T04:10:29.751Z,521.74
2022-11-07T04:11:15.484Z,540.73
2022-11-07T04:11:59.815Z,542.72
2022-11-07T04:12:45.284Z,525.73
2022-11-07T04:13:29.626Z,523.73
2022-11-07T04:14:15.197Z,570.71
2022-11-07T04:14:59.839Z,593.56
2022-11-07T04:15:45.203Z,585.70
2022-11-07T04:16:30.300Z,571.58
2022-11-07T04:17:15.236Z,585.70
2022-11-07T04:18:00.106Z,568.71
2022-11-07T04:18:45.320Z,592.80
2022-11-07T04:19:29.908Z,579.80
2022-11-07T04:20:15.468Z,564.81
2022-11-07T04:21:00.594Z,575.80
2022-11-07T04:21:45.223Z,577.80
2022-11-07T04:22:30.819Z,586.80
2022-11-07T04:23:15.913Z,576.80
2022-11-07T04:24:00.534Z,480.83
2022-11-07T04:24:46.178Z,476.84
2022-11-07T04:25:31.038Z,483.83
2022-11-07T04:26:15.796Z,487.83
2022-11-07T04:27:01.360Z,494.83
2022-11-07T04:27:45.812Z,487.83
2022-11-07T04:28:31.080Z,495.83
2022-11-07T04:29:16.137Z,489.83
2022-11-07T04:30:01.064Z,487.83
2022-11-07T04:30:45.939Z,489.83
2022-11-07T04:31:31.773Z,503.74
2022-11-07T04:32:16.445Z,514.74
2022-11-07T04:33:01.395Z,489.75
2022-11-07T04:33:46.860Z,533.73
2022-11-07T04:34:31.206Z,520.62
2022-11-07T04:35:16.668Z,535.73
2022-11-07T04:36:01.625Z,535.73
2022-11-07T04:36:46.491Z,518.74
2022-11-07T04:37:31.633Z,515.74
2022-11-07T04:38:16.532Z,535.73
2022-11-07T04:39:01.547Z,517.74
2022-11-07T04:39:46.906Z,529.73
2022-11-07T04:40:31.599Z,526.73
2022-11-07T04:41:16.925Z,519.74
2022-11-07T04:42:02.276Z,497.63
2022-11-07T04:42:46.720Z,542.72
2022-11-07T04:43:32.289Z,507.63
2022-11-07T04:44:17.256Z,516.74
2022-11-07T04:45:01.991Z,502.74
2022-11-07T04:45:47.153Z,511.74
2022-11-07T04:46:32.109Z,489.75
2022-11-07T04:47:17.164Z,507.74
2022-11-07T04:48:02.322Z,420.79
2022-11-07T04:48:47.172Z,501.75
2022-11-07T04:49:32.607Z,522.68
2022-11-07T04:50:17.291Z,526.68
2022-11-07T04:51:02.267Z,530.67
2022-11-07T04:51:47.715Z,519.68
2022-11-07T04:52:32.559Z,519.68
2022-11-07T04:53:17.853Z,519.68
2022-11-07T04:54:02.975Z,497.69
2022-11-07T04:54:47.928Z,505.74
2022-11-07T04:55:32.991Z,521.74
2022-11-07T04:56:17.733Z,512.74
2022-11-07T04:57:02.997Z,528.68
2022-11-07T04:57:47.786Z,550.66
2022-11-07T04:58:32.804Z,522.68
2022-11-07T04:59:18.165Z,527.68
2022-11-07T05:00:03.220Z,512.69
2022-11-07T05:00:47.968Z,518.68
2022-11-07T05:01:33.169Z,519.68
2022-11-07T05:02:18.672Z,514.68
2022-11-07T05:03:03.419Z,521.68
2022-11-07T05:03:48.410Z,511.69
2022-11-07T05:04:33.461Z,500.69
2022-11-07T05:05:18.826Z,492.70
2022-11-07T05:06:03.675Z,496.70
2022-11-07T05:06:48.623Z,497.69
2022-11-07T05:07:33.897Z,481.70
2022-11-07T05:08:18.537Z,475.71
2022-11-07T05:09:03.494Z,528.68
2022-11-07T05:09:48.851Z,548.66
2022-11-07T05:10:33.805Z,528.68
2022-11-07T05:11:18.889Z,542.67
2022-11-07T05:12:03.919Z,521.68
2022-11-07T05:12:49.279Z,525.68
2022-11-07T05:13:34.134Z,506.69
2022-11-07T05:14:18.917Z,515.68
2022-11-07T05:15:04.076Z,512.69
2022-11-07T05:15:49.301Z,527.53
2022-11-07T05:16:34.156Z,487.70
2022-11-07T05:17:19.212Z,509.55
2022-11-07T05:18:04.267Z,526.68
2022-11-07T05:18:49.326Z,538.52
2022-11-07T05:19:34.283Z,520.68
2022-11-07T05:20:19.545Z,520.68
2022-11-07T05:21:04.904Z,525.68
2022-11-07T05:21:49.654Z,555.66
2022-11-07T05:22:34.336Z,526.68
2022-11-07T05:23:20.120Z,528.53
2022-11-07T05:24:04.721Z,517.68
2022-11-07T05:24:49.674Z,517.68
2022-11-07T05:25:34.758Z,516.68
2022-11-07T05:26:19.786Z,531.67
2022-11-07T05:27:04.738Z,512.69
2022-11-07T05:27:49.899Z,524.68
2022-11-07T05:28:39.121Z,511.74
2022-11-07T05:29:20.232Z,506.55
2022-11-07T05:30:05.071Z,509.74
2022-11-07T05:30:50.022Z,513.74
2022-11-07T05:31:34.975Z,514.74
2022-11-07T05:32:20.134Z,519.74
2022-11-07T05:33:05.173Z,521.74
2022-11-07T05:33:50.356Z,517.74
2022-11-07T05:34:35.102Z,527.73
2022-11-07T05:35:19.952Z,529.73
2022-11-07T05:36:05.448Z,524.73
2022-11-07T05:36:50.576Z,511.62
2022-11-07T05:37:35.426Z,524.73
2022-11-07T05:38:20.383Z,516.74
2022-11-07T05:39:05.444Z,508.74
2022-11-07T05:39:53.949Z,504.74
2022-11-07T05:40:35.651Z,518.74
2022-11-07T05:41:20.732Z,526.73
2022-11-07T05:42:05.460Z,517.74
2022-11-07T05:42:50.822Z,504.74
2022-11-07T05:43:36.360Z,483.75
2022-11-07T05:44:20.945Z,483.75
2022-11-07T05:45:05.686Z,512.74
2022-11-07T05:45:51.152Z,492.75
2022-11-07T05:46:35.595Z,503.74
2022-11-07T05:47:21.163Z,503.74
2022-11-07T05:48:06.115Z,500.75
2022-11-07T05:48:52.698Z,500.75
2022-11-07T05:49:36.343Z,502.74
2022-11-07T05:50:21.419Z,507.63
2022-11-07T05:51:06.339Z,508.74
2022-11-07T05:51:51.328Z,514.74
2022-11-07T05:52:36.876Z,518.74
2022-11-07T05:53:21.710Z,504.74
2022-11-07T05:54:06.568Z,507.74
2022-11-07T05:54:51.614Z,507.74
2022-11-07T05:55:36.930Z,479.76
2022-11-07T05:56:21.526Z,449.77
2022-11-07T05:57:06.915Z,498.75
2022-11-07T05:57:52.634Z,497.75
2022-11-07T05:58:36.966Z,518.74
2022-11-07T05:59:21.888Z,498.75
2022-11-07T06:00:07.044Z,471.76
2022-11-07T06:00:52.034Z,460.77
2022-11-07T06:01:37.298Z,472.76
2022-11-07T06:02:22.157Z,448.77
2022-11-07T06:03:07.125Z,433.78
2022-11-07T06:03:52.200Z,453.77
2022-11-07T06:04:37.664Z,455.77
2022-11-07T06:05:24.277Z,433.85
2022-11-07T06:06:07.989Z,433.85
2022-11-07T06:06:52.530Z,444.90
2022-11-07T06:07:37.906Z,455.90
2022-11-07T06:08:22.645Z,455.90
2022-11-07T06:09:07.652Z,471.89
2022-11-07T06:09:52.865Z,456.90
2022-11-07T06:10:37.602Z,454.87
2022-11-07T06:11:22.662Z,436.78
2022-11-07T06:12:07.618Z,424.88
2022-11-07T06:12:56.029Z,459.77
2022-11-07T06:13:38.162Z,462.87
2022-11-07T06:14:22.786Z,470.87
2022-11-07T06:15:07.845Z,446.87
2022-11-07T06:15:53.106Z,446.85
2022-11-07T06:16:38.163Z,438.85
2022-11-07T06:17:23.215Z,436.85
2022-11-07T06:18:07.974Z,436.85
2022-11-07T06:18:53.436Z,414.86
2022-11-07T06:19:38.486Z,439.85
2022-11-07T06:20:23.335Z,439.85
2022-11-07T06:21:08.484Z,404.89
2022-11-07T06:21:53.249Z,404.89
2022-11-07T06:22:38.918Z,438.88
2022-11-07T06:23:23.600Z,435.88
2022-11-07T06:24:13.940Z,313.89
2022-11-07T06:24:53.926Z,408.86
2022-11-07T06:25:38.839Z,427.85
2022-11-07T06:26:23.787Z,441.85
2022-11-07T06:27:08.741Z,425.85
2022-11-07T06:27:53.802Z,410.86
2022-11-07T06:28:39.366Z,383.81
2022-11-07T06:29:24.129Z,383.81
2022-11-07T06:30:09.033Z,427.78
2022-11-07T06:30:53.965Z,447.77
2022-11-07T06:31:38.981Z,415.79
2022-11-07T06:32:24.139Z,411.79
2022-11-07T06:33:09.617Z,456.66
2022-11-07T06:33:54.262Z,449.77
2022-11-07T06:34:39.406Z,446.77
2022-11-07T06:35:24.536Z,451.77
2022-11-07T06:36:09.634Z,456.77
2022-11-07T06:37:01.641Z,403.80
2022-11-07T06:37:39.537Z,403.80
2022-11-07T06:38:24.691Z,425.78
2022-11-07T06:39:09.643Z,436.61
2022-11-07T06:39:54.720Z,447.73
2022-11-07T06:40:39.656Z,465.71
2022-11-07T06:41:24.714Z,461.72
2022-11-07T06:42:10.179Z,461.72
2022-11-07T06:42:55.034Z,440.73
2022-11-07T06:43:40.293Z,374.77
2022-11-07T06:44:25.042Z,411.75
2022-11-07T06:45:09.993Z,414.75
2022-11-07T06:45:55.805Z,436.73
2022-11-07T06:46:40.314Z,448.72
2022-11-07T06:47:25.478Z,448.72
2022-11-07T06:48:10.223Z,447.73
2022-11-07T06:48:55.488Z,455.72
2022-11-07T06:49:40.228Z,437.73
2022-11-07T06:50:25.387Z,448.72
2022-11-07T06:51:10.347Z,443.73
2022-11-07T06:51:55.610Z,514.55
2022-11-07T06:52:40.767Z,503.69
2022-11-07T06:53:25.702Z,503.69
2022-11-07T06:54:10.771Z,482.70
2022-11-07T06:54:55.726Z,501.56
2022-11-07T06:55:41.087Z,510.69
2022-11-07T06:56:26.469Z,464.59
2022-11-07T06:57:10.995Z,433.73
2022-11-07T06:57:56.057Z,450.72
2022-11-07T06:58:40.909Z,402.75
2022-11-07T06:59:26.005Z,463.72
2022-11-07T07:00:11.123Z,494.70
2022-11-07T07:00:56.335Z,496.70
2022-11-07T07:01:41.313Z,513.55
2022-11-07T07:02:56.431Z,528.68
2022-11-07T07:03:11.419Z,509.69
2022-11-07T07:03:56.672Z,509.69
2022-11-07T07:04:41.359Z,484.70
2022-11-07T07:05:26.417Z,493.70
2022-11-07T07:06:11.703Z,441.73
2022-11-07T07:06:56.458Z,336.79
2022-11-07T07:07:41.614Z,292.82
2022-11-07T07:08:26.948Z,281.83
2022-11-07T07:09:12.004Z,588.64
2022-11-07T07:09:56.854Z,393.76
2022-11-07T07:10:42.016Z,411.75
2022-11-07T07:11:26.765Z,284.83
2022-11-07T07:12:11.923Z,278.75
2022-11-07T07:12:57.192Z,301.81
2022-11-07T07:13:42.238Z,308.81
2022-11-07T07:14:26.986Z,289.82
2022-11-07T07:15:12.410Z,296.82
2022-11-07T07:15:57.009Z,272.83
2022-11-07T07:16:42.428Z,604.63
2022-11-07T07:17:27.320Z,603.63
2022-11-07T07:18:12.273Z,608.63
2022-11-07T07:18:57.870Z,622.62
2022-11-07T07:19:43.006Z,607.46
2022-11-07T07:20:27.647Z,599.63
2022-11-07T07:21:12.704Z,599.63
2022-11-07T07:21:57.658Z,608.63
2022-11-07T07:22:43.236Z,608.63
2022-11-07T07:23:27.701Z,617.62
2022-11-07T07:24:12.929Z,617.62
2022-11-07T07:24:57.780Z,603.63
2022-11-07T07:25:43.060Z,603.63
2022-11-07T07:26:28.020Z,621.62
2022-11-07T07:27:12.949Z,621.62
2022-11-07T07:27:57.964Z,618.62
2022-11-07T07:28:43.283Z,618.62
2022-11-07T07:29:28.016Z,607.69
2022-11-07T07:30:13.038Z,606.46
2022-11-07T07:30:58.258Z,620.68
2022-11-07T07:31:43.596Z,620.68
2022-11-07T07:32:28.445Z,617.69
2022-11-07T07:33:13.556Z,602.69
2022-11-07T07:33:58.639Z,601.69
2022-11-07T07:34:43.725Z,617.69
2022-11-07T07:35:28.681Z,624.68
2022-11-07T07:36:17.851Z,629.68
2022-11-07T07:36:59.507Z,625.68
2022-11-07T07:37:43.896Z,626.68
2022-11-07T07:38:28.691Z,637.53
2022-11-07T07:39:13.648Z,628.68
2022-11-07T07:39:58.917Z,630.44
2022-11-07T07:40:43.863Z,617.69
2022-11-07T07:41:29.023Z,583.64
2022-11-07T07:42:14.107Z,581.64
2022-11-07T07:42:59.136Z,584.70
2022-11-07T07:43:44.401Z,594.70
2022-11-07T07:44:29.352Z,594.70
2022-11-07T07:45:14.507Z,598.70
2022-11-07T07:45:59.478Z,596.70
2022-11-07T07:46:44.328Z,596.70
2022-11-07T07:47:29.392Z,604.69
2022-11-07T07:48:14.837Z,604.69
2022-11-07T07:48:59.644Z,604.69
2022-11-07T07:49:44.749Z,649.67
2022-11-07T07:50:29.502Z,651.52
2022-11-07T07:51:14.563Z,647.67
2022-11-07T07:51:59.912Z,652.67
2022-11-07T07:52:44.971Z,647.67
2022-11-07T07:53:30.030Z,647.67
2022-11-07T07:54:14.774Z,646.67
2022-11-07T07:54:59.941Z,643.67
2022-11-07T07:55:45.296Z,637.68
2022-11-07T07:56:30.055Z,642.67
2022-11-07T07:57:15.157Z,643.67
2022-11-07T07:58:00.061Z,647.67
2022-11-07T07:58:45.037Z,643.67
2022-11-07T07:59:30.377Z,646.67
2022-11-07T08:00:15.226Z,639.68
2022-11-07T08:01:00.287Z,636.68
2022-11-07T08:01:45.256Z,633.68
2022-11-07T08:02:30.466Z,632.68
2022-11-07T08:03:15.557Z,617.69
2022-11-07T08:04:02.317Z,623.68
2022-11-07T08:04:46.080Z,639.68
2022-11-07T08:05:30.524Z,627.68
2022-11-07T08:06:15.785Z,631.68
2022-11-07T08:07:00.629Z,634.68
2022-11-07T08:07:45.800Z,639.68
2022-11-07T08:08:33.945Z,632.68
2022-11-07T08:09:16.111Z,622.68
2022-11-07T08:10:09.811Z,621.68
2022-11-07T08:10:46.026Z,631.68
2022-11-07T08:11:31.078Z,625.68
2022-11-07T08:12:16.030Z,635.68
2022-11-07T08:13:01.027Z,633.68
2022-11-07T08:13:46.277Z,638.68
2022-11-07T08:14:31.305Z,622.68
2022-11-07T08:15:16.572Z,621.68
2022-11-07T08:16:01.663Z,601.69
2022-11-07T08:16:46.882Z,624.68
2022-11-07T08:17:31.773Z,628.68
2022-11-07T08:18:16.616Z,628.68
2022-11-07T08:19:01.643Z,638.68
2022-11-07T08:19:46.524Z,636.53
2022-11-07T08:20:31.958Z,633.68
2022-11-07T08:21:17.270Z,639.68
2022-11-07T08:22:03.208Z,635.61
2022-11-07T08:22:46.747Z,628.68
2022-11-07T08:23:31.670Z,631.53
2022-11-07T08:24:16.849Z,631.68
2022-11-07T08:25:02.090Z,625.45
2022-11-07T08:25:47.251Z,634.61
2022-11-07T08:26:32.204Z,634.61
2022-11-07T08:27:17.159Z,624.62
2022-11-07T08:28:01.916Z,630.44
2022-11-07T08:28:47.189Z,632.61
2022-11-07T08:29:32.323Z,632.61
2022-11-07T08:30:18.294Z,633.61
2022-11-07T08:31:02.308Z,628.44
2022-11-07T08:31:47.508Z,626.62
2022-11-07T08:32:32.551Z,639.61
2022-11-07T08:33:17.970Z,641.61
2022-11-07T08:34:03.657Z,634.78
2022-11-07T08:34:47.535Z,637.88
2022-11-07T08:35:34.812Z,639.88
2022-11-07T08:36:18.212Z,635.88
2022-11-07T08:37:03.386Z,636.88
2022-11-07T08:37:48.152Z,634.86
2022-11-07T08:38:32.902Z,616.83
2022-11-07T08:39:17.861Z,597.79
2022-11-07T08:40:03.862Z,609.69
2022-11-07T08:40:47.973Z,618.69
2022-11-07T08:41:33.034Z,624.79
2022-11-07T08:42:18.081Z,618.69
2022-11-07T08:43:03.142Z,582.70
2022-11-07T08:43:48.258Z,609.55
2022-11-07T08:44:33.355Z,619.69
2022-11-07T08:45:18.527Z,624.54
2022-11-07T08:46:03.476Z,620.68
2022-11-07T08:46:48.316Z,622.68
2022-11-07T08:47:33.396Z,617.69
2022-11-07T08:48:18.841Z,622.68
2022-11-07T08:49:03.821Z,613.69
2022-11-07T08:49:48.866Z,597.63
2022-11-07T08:50:33.806Z,589.70
2022-11-07T08:51:18.661Z,581.70
2022-11-07T08:52:03.832Z,587.64
2022-11-07T08:52:49.180Z,551.66
2022-11-07T08:53:34.038Z,470.58
2022-11-07T08:54:19.229Z,500.75
2022-11-07T08:55:04.148Z,500.69
2022-11-07T08:55:48.994Z,437.78
2022-11-07T08:56:34.190Z,437.78
2022-11-07T08:57:19.105Z,469.71
2022-11-07T08:58:04.400Z,469.71
2022-11-07T08:58:49.527Z,345.74
2022-11-07T08:59:34.271Z,398.71
2022-11-07T09:00:19.535Z,341.75
2022-11-07T09:01:04.518Z,356.74
2022-11-07T09:02:28.101Z,298.78
2022-11-07T09:03:47.499Z,578.57
2022-11-07T09:04:04.572Z,591.38
2022-11-07T09:04:49.591Z,593.56
2022-11-07T09:05:35.192Z,610.36
2022-11-07T09:06:19.787Z,592.56
2022-11-07T09:07:05.371Z,598.56
2022-11-07T09:07:49.922Z,587.57
2022-11-07T09:08:34.783Z,592.56
2022-11-07T09:09:20.114Z,600.37
2022-11-07T09:10:04.880Z,607.55
2022-11-07T09:10:49.935Z,615.35
2022-11-07T09:11:34.879Z,613.55
2022-11-07T09:12:20.180Z,607.55
2022-11-07T09:13:05.137Z,592.56
2022-11-07T09:13:50.308Z,614.55
2022-11-07T09:14:36.185Z,611.55
2022-11-07T09:15:21.280Z,616.35
2022-11-07T09:16:05.550Z,602.56
2022-11-07T09:16:50.492Z,607.55
2022-11-07T09:17:35.369Z,607.55
2022-11-07T09:18:20.631Z,608.55
2022-11-07T09:19:05.790Z,608.55
2022-11-07T09:19:50.735Z,614.55
2022-11-07T09:20:35.652Z,612.55
2022-11-07T09:21:22.769Z,613.55
2022-11-07T09:22:05.888Z,606.36
2022-11-07T09:22:51.117Z,622.54